Time;durP1;ratioP1;P1;durP2;ratioP2;P2;SDS_P1;SDS_P2;PMS_P1;PMS_P2;Temp;Humidity;BMP_temperature;BMP_pressure;BME280_temperature;BME280_humidity;BME280_pressure;Samples;Min_cycle;Max_cycle;Signal;HPM_P1;HPM_P2
2023/10/30 00:00:58;;;;;;;14.63;1.15;;;;;;;9.52;100.00;99656.81;5020692;28;20465;-87
2023/10/30 00:03:23;;;;;;;10.93;1.10;;;;;;;9.52;100.00;99664.13;5054314;28;20108;-86
2023/10/30 00:05:49;;;;;;;7.65;1.10;;;;;;;9.49;100.00;99657.28;5035657;28;20029;-87
2023/10/30 00:08:16;;;;;;;13.13;1.47;;;;;;;9.51;100.00;99671.44;5036277;28;20029;-86
2023/10/30 00:10:53;;;;;;;9.55;1.15;;;;;;;9.51;100.00;99670.59;5036311;28;20068;-86
2023/10/30 00:13:26;;;;;;;11.93;2.33;;;;;;;9.51;100.00;99676.00;5054667;28;20075;-86
2023/10/30 00:15:55;;;;;;;12.97;1.50;;;;;;;9.52;100.00;99673.06;5018680;28;20040;-86
2023/10/30 00:18:20;;;;;;;7.32;1.20;;;;;;;9.52;100.00;99673.06;5019512;28;20033;-87
2023/10/30 00:20:46;;;;;;;9.35;1.55;;;;;;;9.48;100.00;99677.31;5035977;28;20029;-87
2023/10/30 00:23:11;;;;;;;9.97;1.00;;;;;;;9.47;100.00;99689.19;5053635;28;20107;-86
2023/10/30 00:25:39;;;;;;;7.80;0.90;;;;;;;9.42;100.00;99697.19;5036214;28;20047;-86
2023/10/30 00:28:07;;;;;;;8.02;1.15;;;;;;;9.48;100.00;99696.28;5053581;28;20447;-86
2023/10/30 00:30:43;;;;;;;11.60;1.15;;;;;;;9.47;100.00;99705.44;5036018;28;20389;-86
2023/10/30 00:33:10;;;;;;;7.60;1.20;;;;;;;9.45;100.00;99713.00;5020858;28;20608;-86
2023/10/30 00:35:49;;;;;;;12.05;1.40;;;;;;;9.40;100.00;99710.16;5019481;28;20029;-86
2023/10/30 00:38:17;;;;;;;11.32;1.38;;;;;;;9.36;100.00;99709.81;5036461;28;20040;-87
2023/10/30 00:40:48;;;;;;;10.57;1.73;;;;;;;9.38;100.00;99704.97;5035474;28;20388;-87
2023/10/30 00:43:20;;;;;;;11.90;1.50;;;;;;;9.42;100.00;99719.69;5020244;28;20064;-86
2023/10/30 00:45:46;;;;;;;10.20;1.27;;;;;;;9.38;100.00;99721.22;5035776;28;20033;-87
2023/10/30 00:48:14;;;;;;;9.83;1.23;;;;;;;9.35;100.00;99723.59;5035609;28;20111;-86
2023/10/30 00:50:44;;;;;;;10.07;1.15;;;;;;;9.37;100.00;99724.16;5036644;28;20036;-87
2023/10/30 00:53:12;;;;;;;14.23;1.80;;;;;;;9.41;100.00;99733.47;5036325;28;20180;-87
2023/10/30 00:55:43;;;;;;;11.13;1.48;;;;;;;9.42;100.00;99732.38;5019518;28;20098;-87
2023/10/30 00:58:17;;;;;;;7.97;1.65;;;;;;;9.47;100.00;99736.03;5035696;28;20040;-87
2023/10/30 01:00:43;;;;;;;11.15;1.58;;;;;;;9.44;100.00;99736.50;5053506;28;20543;-86
2023/10/30 01:03:11;;;;;;;10.50;1.40;;;;;;;9.47;100.00;99741.47;5052712;28;20063;-86
2023/10/30 01:05:42;;;;;;;10.80;1.50;;;;;;;9.56;100.00;99760.06;5035275;28;20029;-86
2023/10/30 01:08:11;;;;;;;14.73;2.15;;;;;;;9.54;100.00;99746.78;5036092;28;20025;-86
2023/10/30 01:10:41;;;;;;;13.35;1.85;;;;;;;9.57;100.00;99754.41;5035228;28;20056;-87
2023/10/30 01:13:07;;;;;;;15.10;1.45;;;;;;;9.56;100.00;99750.06;5035970;28;20115;-87
2023/10/30 01:15:35;;;;;;;10.30;1.20;;;;;;;9.60;100.00;99763.97;5035369;28;20108;-87
2023/10/30 01:18:08;;;;;;;14.55;1.80;;;;;;;9.58;100.00;99768.78;5035607;28;20033;-87
2023/10/30 01:20:41;;;;;;;12.30;1.17;;;;;;;9.58;100.00;99775.03;5053060;28;20389;-86
2023/10/30 01:23:07;;;;;;;19.57;1.50;;;;;;;9.63;100.00;99783.25;5035280;28;20032;-86
2023/10/30 01:25:35;;;;;;;11.50;1.50;;;;;;;9.59;100.00;99765.00;5035342;28;20091;-87
2023/10/30 01:28:01;;;;;;;7.68;1.48;;;;;;;9.58;100.00;99768.78;5035008;28;20071;-87
2023/10/30 01:30:26;;;;;;;10.40;1.63;;;;;;;9.55;100.00;99753.00;5053444;28;20029;-86
2023/10/30 01:32:52;;;;;;;7.93;1.00;;;;;;;9.54;100.00;99764.91;5057520;28;20405;-87
2023/10/30 01:35:17;;;;;;;12.17;1.27;;;;;;;9.54;100.00;99754.06;5038885;28;20033;-87
2023/10/30 01:37:46;;;;;;;11.77;1.08;;;;;;;9.62;100.00;99764.53;5039150;28;20275;-87
2023/10/30 01:40:11;;;;;;;8.95;1.52;;;;;;;9.60;100.00;99756.66;5039220;28;20032;-87
2023/10/30 01:42:40;;;;;;;11.70;2.03;;;;;;;9.68;100.00;99763.59;5039085;28;20029;-87
2023/10/30 01:45:06;;;;;;;12.35;1.60;;;;;;;9.63;100.00;99764.31;5039579;28;20032;-87
2023/10/30 01:47:35;;;;;;;7.90;1.42;;;;;;;9.66;100.00;99755.69;5057047;28;20056;-87
2023/10/30 01:50:01;;;;;;;11.80;1.35;;;;;;;9.68;100.00;99763.59;5038921;28;20037;-86
2023/10/30 01:52:29;;;;;;;7.63;1.50;;;;;;;9.69;100.00;99757.13;5038430;28;20032;-87
2023/10/30 01:54:55;;;;;;;12.90;1.58;;;;;;;9.75;100.00;99769.72;5038825;28;20112;-86
2023/10/30 01:57:26;;;;;;;7.57;1.00;;;;;;;9.75;100.00;99760.78;5038713;28;20110;-87
2023/10/30 01:59:59;;;;;;;13.53;1.43;;;;;;;9.83;100.00;99776.66;5038937;28;20029;-87
2023/10/30 02:02:28;;;;;;;11.32;1.30;;;;;;;9.82;100.00;99775.84;5038875;28;20045;-87
2023/10/30 02:04:56;;;;;;;10.10;1.20;;;;;;;9.80;100.00;99783.38;5056723;28;20031;-86
2023/10/30 02:07:24;;;;;;;6.55;1.20;;;;;;;9.77;100.00;99780.31;5038770;28;20489;-87
2023/10/30 02:09:50;;;;;;;9.25;1.23;;;;;;;9.78;100.00;99771.13;5038333;28;20061;-88
2023/10/30 02:12:19;;;;;;;7.07;1.17;;;;;;;9.78;100.00;99776.56;5021816;28;20036;-86
2023/10/30 02:14:47;;;;;;;12.38;1.40;;;;;;;9.80;100.00;99775.25;5055094;28;20033;-86
2023/10/30 02:17:15;;;;;;;10.20;1.48;;;;;;;9.87;100.00;99774.31;5038764;28;20439;-86
2023/10/30 02:19:53;;;;;;;;;;;;;;;;;;;;;
2023/10/30 02:22:18;;;;;;;6.45;1.00;;;;;;;9.82;100.00;99773.13;5056889;28;20056;-86
2023/10/30 02:24:44;;;;;;;9.40;1.23;;;;;;;9.84;100.00;99775.59;5056816;28;20111;-86
2023/10/30 02:27:18;;;;;;;8.83;1.00;;;;;;;9.83;100.00;99774.78;5038157;28;20036;-87
2023/10/30 02:29:46;;;;;;;11.13;1.08;;;;;;;9.80;100.00;99774.41;5038525;28;20417;-86
2023/10/30 02:32:14;;;;;;;9.32;0.90;;;;;;;9.74;100.00;99767.25;5037946;28;20056;-86
2023/10/30 02:34:47;;;;;;;7.38;1.17;;;;;;;9.80;100.00;99777.13;5021424;28;20432;-86
2023/10/30 02:37:13;;;;;;;10.25;1.48;;;;;;;9.80;100.00;99769.84;5056399;28;20112;-86
2023/10/30 02:39:45;;;;;;;13.53;1.57;;;;;;;9.84;100.00;99772.91;5037800;28;20068;-87
2023/10/30 02:42:13;;;;;;;8.95;1.05;;;;;;;9.83;100.00;99758.53;5038874;28;20032;-87
2023/10/30 02:44:46;;;;;;;9.57;1.00;;;;;;;9.82;100.00;99759.59;5037938;28;20025;-86
2023/10/30 02:47:15;;;;;;;4.47;0.98;;;;;;;9.83;100.00;99757.69;5021545;28;20461;-87
2023/10/30 02:49:48;;;;;;;10.57;0.93;;;;;;;9.87;100.00;99766.19;5037688;28;20021;-87
2023/10/30 02:52:13;;;;;;;9.80;1.02;;;;;;;9.76;100.00;99757.84;5038434;28;20055;-87
2023/10/30 02:54:48;;;;;;;7.83;1.30;;;;;;;9.86;100.00;99767.25;5021084;28;20481;-86
2023/10/30 02:57:16;;;;;;;5.32;1.10;;;;;;;9.80;100.00;99756.31;5023664;28;20480;-87
2023/10/30 02:59:41;;;;;;;4.78;1.10;;;;;;;9.88;100.00;99757.00;5021204;28;20037;-87
2023/10/30 03:02:10;;;;;;;9.70;1.00;;;;;;;9.86;100.00;99762.63;5053944;28;20094;-87
2023/10/30 03:04:38;;;;;;;7.03;1.30;;;;;;;9.86;100.00;99745.56;5037801;28;20040;-86
2023/10/30 03:07:06;;;;;;;9.50;1.02;;;;;;;9.89;100.00;99754.06;5054264;28;20032;-87
2023/10/30 03:09:36;;;;;;;12.57;1.15;;;;;;;9.87;100.00;99766.19;5036862;28;20068;-86
2023/10/30 03:12:11;;;;;;;9.40;2.13;;;;;;;9.90;100.00;99765.72;5037192;28;20033;-86
2023/10/30 03:14:39;;;;;;;6.30;0.90;;;;;;;9.84;100.00;99765.59;5037678;28;20021;-86
2023/10/30 03:17:09;;;;;;;8.43;1.30;;;;;;;9.82;100.00;99770.41;5037808;28;20021;-87
2023/10/30 03:19:37;;;;;;;5.68;1.42;;;;;;;9.85;100.00;99774.56;5038184;28;20036;-87
2023/10/30 03:22:03;;;;;;;9.60;1.20;;;;;;;9.92;100.00;99783.38;5036956;28;20029;-86
2023/10/30 03:24:31;;;;;;;8.57;1.23;;;;;;;9.89;100.00;99778.44;5053433;28;20036;-87
2023/10/30 03:26:57;;;;;;;10.25;1.20;;;;;;;9.88;100.00;99793.03;5037969;28;20028;-87
2023/10/30 03:29:25;;;;;;;12.13;1.45;;;;;;;9.85;100.00;99793.50;5037512;28;20040;-87
2023/10/30 03:31:54;;;;;;;8.73;1.02;;;;;;;9.78;100.00;99787.38;5037102;28;20052;-86
2023/10/30 03:34:21;;;;;;;8.75;1.30;;;;;;;9.74;100.00;99781.59;5054813;28;20392;-87
2023/10/30 03:36:46;;;;;;;10.57;1.38;;;;;;;9.79;100.00;99776.31;5054996;28;20441;-87
2023/10/30 03:39:12;;;;;;;13.20;1.20;;;;;;;9.77;100.00;99773.03;5054517;28;20053;-87
2023/10/30 03:41:37;;;;;;;10.93;1.13;;;;;;;9.77;100.00;99772.19;5020061;28;20037;-87
2023/10/30 03:44:03;;;;;;;9.88;1.58;;;;;;;9.72;100.00;99770.19;5036795;28;20028;-87
2023/10/30 03:46:31;;;;;;;5.93;1.50;;;;;;;9.71;100.00;99765.00;5036970;28;20029;-87
2023/10/30 03:48:57;;;;;;;7.22;1.40;;;;;;;9.68;100.00;99774.44;5054707;28;20751;-87
2023/10/30 03:51:24;;;;;;;8.88;1.55;;;;;;;9.65;100.00;99778.44;5036470;28;20032;-87
2023/10/30 03:53:50;;;;;;;9.40;1.15;;;;;;;9.65;100.00;99781.16;5053603;28;20542;-86
2023/10/30 03:56:18;;;;;;;12.60;1.25;;;;;;;9.65;100.00;99777.59;5036523;28;20033;-87
2023/10/30 03:58:44;;;;;;;13.15;1.05;;;;;;;9.63;100.00;99779.75;5054175;28;20040;-87
2023/10/30 04:01:12;;;;;;;7.75;1.35;;;;;;;9.59;100.00;99776.66;5020205;28;20041;-87
2023/10/30 04:03:45;;;;;;;11.35;0.98;;;;;;;9.62;100.00;99786.22;5054114;28;20070;-87
2023/10/30 04:06:11;;;;;;;5.40;1.10;;;;;;;9.62;100.00;99775.38;5054717;28;20044;-87
2023/10/30 04:08:46;;;;;;;12.23;1.45;;;;;;;9.58;100.00;99772.31;5036312;28;20033;-86
2023/10/30 04:11:15;;;;;;;9.17;0.87;;;;;;;9.62;100.00;99775.38;5036087;28;20041;-87
2023/10/30 04:13:46;;;;;;;11.77;1.58;;;;;;;9.60;100.00;99767.50;5036487;28;20037;-87
2023/10/30 04:16:17;;;;;;;11.05;1.30;;;;;;;9.57;100.00;99769.84;5018930;28;20044;-87
2023/10/30 04:18:42;;;;;;;5.10;1.10;;;;;;;9.61;100.00;99774.56;5054661;28;20029;-87
2023/10/30 04:21:12;;;;;;;10.33;1.37;;;;;;;9.61;100.00;99765.59;5036137;28;20040;-89
2023/10/30 04:23:40;;;;;;;11.65;1.20;;;;;;;9.62;100.00;99769.97;5020028;28;20060;-86
2023/10/30 04:26:06;;;;;;;14.32;1.00;;;;;;;9.62;100.00;99770.78;5036463;28;20112;-87
2023/10/30 04:28:31;;;;;;;7.97;1.40;;;;;;;9.54;100.00;99765.72;5035241;28;20493;-86
2023/10/30 04:31:00;;;;;;;10.07;1.50;;;;;;;9.47;100.00;99771.25;5054341;28;20029;-87
2023/10/30 04:33:26;;;;;;;8.20;1.65;;;;;;;9.48;100.00;99777.50;5036029;28;20029;-87
2023/10/30 04:35:53;;;;;;;7.80;1.25;;;;;;;9.41;100.00;99777.59;5035493;28;20063;-87
2023/10/30 04:38:19;;;;;;;11.60;1.23;;;;;;;9.41;100.00;99782.19;5036128;28;20025;-87
2023/10/30 04:40:50;;;;;;;10.93;1.30;;;;;;;9.40;100.00;99785.94;5035513;28;20151;-87
2023/10/30 04:43:20;;;;;;;16.92;1.30;;;;;;;9.41;100.00;99788.44;5053506;28;20425;-86
2023/10/30 04:45:46;;;;;;;6.90;1.10;;;;;;;9.38;100.00;99779.97;5053601;28;20025;-87
2023/10/30 04:48:15;;;;;;;10.30;0.98;;;;;;;9.39;100.00;99785.13;5053260;28;20036;-87
2023/10/30 04:50:43;;;;;;;7.00;1.13;;;;;;;9.40;100.00;99783.25;5035543;28;20040;-87
2023/10/30 04:53:13;;;;;;;10.60;1.00;;;;;;;9.39;100.00;99789.72;5035949;28;20037;-87
2023/10/30 04:55:39;;;;;;;8.07;1.00;;;;;;;9.32;100.00;99776.31;5054482;28;20036;-87
2023/10/30 04:58:07;;;;;;;8.40;1.10;;;;;;;9.29;100.00;99774.06;5036137;28;20033;-87
2023/10/30 05:00:38;;;;;;;14.82;1.60;;;;;;;9.27;100.00;99768.03;5035615;28;20506;-86
2023/10/30 05:03:03;;;;;;;8.85;1.20;;;;;;;9.35;100.00;99778.53;5052190;28;20127;-87
2023/10/30 05:05:35;;;;;;;8.73;1.27;;;;;;;9.27;100.00;99774.28;5036072;28;20425;-87
2023/10/30 05:08:00;;;;;;;7.47;1.42;;;;;;;9.28;100.00;99775.09;5039646;28;20036;-87
2023/10/30 05:10:34;;;;;;;5.10;1.10;;;;;;;9.30;100.00;99767.56;5039447;28;20049;-87
2023/10/30 05:13:05;;;;;;;12.65;1.20;;;;;;;9.24;100.00;99768.50;5040212;28;20267;-87
2023/10/30 05:15:30;;;;;;;10.45;1.67;;;;;;;9.25;100.00;99779.09;5039306;28;20032;-87
2023/10/30 05:18:02;;;;;;;14.17;1.30;;;;;;;9.23;100.00;99770.41;5039489;28;20426;-88
2023/10/30 05:20:30;;;;;;;14.57;1.30;;;;;;;9.19;100.00;99774.63;5039290;28;20036;-87
2023/10/30 05:23:00;;;;;;;8.63;1.60;;;;;;;9.15;100.00;99778.03;5039357;28;20078;-87
2023/10/30 05:25:26;;;;;;;10.95;1.02;;;;;;;9.15;100.00;99784.25;5039444;28;20033;-87
2023/10/30 05:27:54;;;;;;;7.03;1.20;;;;;;;9.08;100.00;99775.41;5055943;28;20070;-87
2023/10/30 05:30:27;;;;;;;6.28;1.20;;;;;;;9.01;100.00;99764.72;5038742;28;20066;-87
2023/10/30 05:32:52;;;;;;;8.30;1.05;;;;;;;8.97;100.00;99755.41;5040033;28;20036;-87
2023/10/30 05:35:23;;;;;;;18.08;1.63;;;;;;;8.95;100.00;99757.53;5056871;28;20380;-86
2023/10/30 05:37:49;;;;;;;10.32;0.98;;;;;;;8.88;100.00;99752.19;5039332;28;20044;-87
2023/10/30 05:40:19;;;;;;;11.13;1.23;;;;;;;8.86;100.00;99754.31;5022642;28;20033;-87
2023/10/30 05:42:52;;;;;;;8.88;1.73;;;;;;;8.76;100.00;99745.94;5022700;28;20064;-87
2023/10/30 05:45:20;;;;;;;11.65;1.60;;;;;;;8.72;100.00;99759.06;5056058;28;20053;-86
2023/10/30 05:47:48;;;;;;;11.48;1.23;;;;;;;8.66;100.00;99764.59;5038816;28;20366;-87
2023/10/30 05:50:16;;;;;;;14.38;1.00;;;;;;;8.68;100.00;99773.28;5038913;28;20044;-87
2023/10/30 05:52:47;;;;;;;12.00;1.55;;;;;;;8.60;100.00;99758.22;5038111;28;20080;-86
2023/10/30 05:55:23;;;;;;;10.38;1.20;;;;;;;8.57;100.00;99755.97;5039451;28;20037;-88
2023/10/30 05:57:56;;;;;;;11.18;1.30;;;;;;;8.56;100.00;99749.75;5057057;28;20174;-86
2023/10/30 06:00:25;;;;;;;9.50;1.40;;;;;;;8.50;100.00;99749.84;5040375;28;20037;-87
2023/10/30 06:02:51;;;;;;;7.70;0.80;;;;;;;8.51;100.00;99765.81;5038649;28;20036;-87
2023/10/30 06:05:22;;;;;;;8.65;1.38;;;;;;;8.41;100.00;99744.72;5056689;28;20026;-87
2023/10/30 06:07:53;;;;;;;8.00;1.00;;;;;;;8.35;100.00;99745.63;5038679;28;20029;-86
2023/10/30 06:10:28;;;;;;;10.93;0.88;;;;;;;8.26;100.00;99742.41;5038555;28;20053;-87
2023/10/30 06:13:59;;;;;;;9.77;1.50;;;;;;;8.29;100.00;99756.53;5015134;28;20377;-87
2023/10/30 06:16:25;;;;;;;5.38;0.93;;;;;;;8.23;100.00;99755.56;5005827;28;20064;-89
2023/10/30 06:18:50;;;;;;;13.70;1.70;;;;;;;8.26;100.00;99764.00;5039242;28;20033;-90
2023/10/30 06:21:18;;;;;;;12.43;1.83;;;;;;;8.25;100.00;99764.25;5039183;28;20040;-90
2023/10/30 06:23:43;;;;;;;10.07;1.30;;;;;;;8.29;100.00;99776.25;5038090;28;20481;-90
2023/10/30 06:26:10;;;;;;;16.48;1.75;;;;;;;8.29;100.00;99775.44;5038457;28;20021;-90
2023/10/30 06:28:41;;;;;;;15.70;1.23;;;;;;;8.30;100.00;99772.50;5039006;28;20116;-90
2023/10/30 06:31:43;;;;;;;13.18;1.20;;;;;;;8.34;100.00;99780.97;5039489;28;20471;-90
2023/10/30 06:34:18;;;;;;;13.18;1.10;;;;;;;8.34;100.00;99791.78;5038504;28;20119;-91
2023/10/30 06:36:48;;;;;;;16.13;1.52;;;;;;;8.28;100.00;99781.88;5040401;28;20033;-91
2023/10/30 06:39:20;;;;;;;9.27;1.20;;;;;;;8.29;100.00;99794.34;5022772;28;20029;-89
2023/10/30 06:41:48;;;;;;;13.40;1.38;;;;;;;8.34;100.00;99797.19;5021620;28;20041;-89
2023/10/30 06:44:15;;;;;;;14.32;1.25;;;;;;;8.37;100.00;99807.56;5037735;28;20036;-87
2023/10/30 06:46:41;;;;;;;11.25;1.30;;;;;;;8.36;100.00;99809.44;5055823;28;20029;-87
2023/10/30 06:49:06;;;;;;;14.73;1.23;;;;;;;8.41;100.00;99819.56;5055732;28;20488;-87
2023/10/30 06:51:32;;;;;;;7.05;1.23;;;;;;;8.37;100.00;99803.00;5055468;28;20473;-89
2023/10/30 06:53:57;;;;;;;16.23;1.50;;;;;;;8.43;100.00;99807.47;5055423;28;20462;-88
2023/10/30 06:56:33;;;;;;;8.20;1.00;;;;;;;8.40;100.00;99802.53;5038024;28;20025;-89
2023/10/30 06:59:00;;;;;;;11.85;1.30;;;;;;;8.46;100.00;99810.81;5037988;28;20040;-89
2023/10/30 07:01:39;;;;;;;13.40;1.52;;;;;;;8.50;100.00;99817.41;5037556;28;20047;-88
2023/10/30 07:04:07;;;;;;;11.38;1.60;;;;;;;8.55;100.00;99804.88;5037229;28;20025;-89
2023/10/30 07:06:33;;;;;;;10.98;0.90;;;;;;;8.60;100.00;99821.22;5037426;28;20406;-89
2023/10/30 07:08:58;;;;;;;9.88;1.13;;;;;;;8.65;100.00;99823.28;5020884;28;20097;-88
2023/10/30 07:11:27;;;;;;;13.97;1.10;;;;;;;8.67;100.00;99814.94;5051255;28;20551;-87
2023/10/30 07:13:54;;;;;;;9.13;1.30;;;;;;;8.69;100.00;99810.09;5037598;28;20037;-88
2023/10/30 07:16:20;;;;;;;8.20;1.20;;;;;;;8.74;100.00;99808.38;5037176;28;20205;-88
2023/10/30 07:18:48;;;;;;;11.80;1.23;;;;;;;8.82;100.00;99817.22;5021534;28;20123;-88
2023/10/30 07:21:13;;;;;;;16.90;1.80;;;;;;;8.80;100.00;99811.19;5055144;28;20107;-89
2023/10/30 07:23:38;;;;;;;12.90;1.50;;;;;;;8.83;100.00;99817.00;5036632;28;20469;-88
2023/10/30 07:26:05;;;;;;;11.13;1.53;;;;;;;8.82;100.00;99815.34;5036606;28;20152;-93
2023/10/30 07:28:30;;;;;;;7.35;1.15;;;;;;;8.82;100.00;99818.03;5036472;28;20373;-88
2023/10/30 07:30:56;;;;;;;11.73;1.23;;;;;;;8.88;100.00;99837.94;5020798;28;20038;-89
2023/10/30 07:33:21;;;;;;;10.00;1.23;;;;;;;8.92;100.00;99833.72;5053233;28;20477;-87
2023/10/30 07:35:53;;;;;;;17.23;1.48;;;;;;;8.97;100.00;99833.03;5054585;28;20287;-89
2023/10/30 07:38:18;;;;;;;10.90;1.20;;;;;;;9.07;100.00;99838.72;5036810;28;20119;-88
2023/10/30 07:40:46;;;;;;;12.50;1.67;;;;;;;9.12;100.00;99850.50;5054723;28;20134;-89
2023/10/30 07:43:16;;;;;;;5.20;1.10;;;;;;;9.17;100.00;99849.81;5033599;28;20409;-88
2023/10/30 07:45:42;;;;;;;11.03;1.80;;;;;;;9.26;100.00;99853.84;5036535;28;20037;-89
2023/10/30 07:48:07;;;;;;;12.90;1.70;;;;;;;9.24;100.00;99833.47;5036445;28;20489;-88
2023/10/30 07:50:36;;;;;;;7.77;1.47;;;;;;;9.31;100.00;99850.44;5036444;28;20021;-88
2023/10/30 07:53:05;;;;;;;16.50;1.90;;;;;;;9.41;100.00;99847.19;5036492;28;20086;-88
2023/10/30 07:55:30;;;;;;;10.52;1.42;;;;;;;9.46;100.00;99841.88;5054885;28;20132;-88
2023/10/30 07:57:56;;;;;;;7.27;1.20;;;;;;;9.47;100.00;99843.53;5019604;28;20549;-88
2023/10/30 08:00:21;;;;;;;10.13;1.53;;;;;;;9.55;100.00;99847.78;5055153;28;20061;-88
2023/10/30 08:02:49;;;;;;;10.13;1.90;;;;;;;9.57;100.00;99832.13;5036426;28;20075;-88
2023/10/30 08:05:17;;;;;;;12.27;1.98;;;;;;;9.66;100.00;99850.50;5054269;28;20029;-88
2023/10/30 08:07:49;;;;;;;14.95;1.42;;;;;;;9.64;100.00;99840.94;5037365;28;20037;-90
2023/10/30 08:10:21;;;;;;;12.65;1.83;;;;;;;9.76;100.00;99858.06;5036454;28;20478;-88
2023/10/30 08:12:50;;;;;;;11.43;1.30;;;;;;;9.79;100.00;99849.47;5036068;28;20036;-88
2023/10/30 08:15:18;;;;;;;12.55;1.20;;;;;;;9.89;100.00;99854.31;5019540;28;20538;-89
2023/10/30 08:17:45;;;;;;;12.27;1.27;;;;;;;10.00;100.00;99845.34;5054375;28;20090;-88
2023/10/30 08:20:11;;;;;;;8.00;1.23;;;;;;;10.15;100.00;99847.56;5053811;28;20036;-89
2023/10/30 08:22:38;;;;;;;7.22;1.00;;;;;;;10.38;100.00;99856.78;5054427;28;20057;-89
2023/10/30 08:25:10;;;;;;;11.70;1.20;;;;;;;10.46;100.00;99850.97;5019672;28;20090;-88
2023/10/30 08:27:35;;;;;;;12.00;1.40;;;;;;;10.55;100.00;99851.41;5036864;28;20033;-89
2023/10/30 08:30:05;;;;;;;8.00;1.27;;;;;;;10.62;100.00;99857.53;5052264;28;20021;-88
2023/10/30 08:32:56;;;;;;;10.52;1.92;;;;;;;10.69;100.00;99870.97;5020078;28;20043;-89
2023/10/30 08:35:24;;;;;;;12.90;1.55;;;;;;;10.79;100.00;99859.50;5052931;28;20488;-89
2023/10/30 08:37:52;;;;;;;7.50;1.48;;;;;;;10.87;100.00;99859.13;5053570;28;20037;-89
2023/10/30 08:40:17;;;;;;;7.88;1.15;;;;;;;10.98;100.00;99858.22;5035797;28;20036;-88
2023/10/30 08:42:45;;;;;;;13.75;1.75;;;;;;;11.11;100.00;99859.84;5035995;28;20036;-89
2023/10/30 08:45:18;;;;;;;7.07;1.75;;;;;;;11.16;100.00;99851.81;5054172;28;20035;-89
2023/10/30 08:47:46;;;;;;;8.27;1.38;;;;;;;11.30;100.00;99855.03;5033625;28;20045;-89
2023/10/30 08:50:19;;;;;;;8.60;1.55;;;;;;;11.38;100.00;99853.81;5019336;28;20032;-89
2023/10/30 08:52:48;;;;;;;8.37;1.20;;;;;;;11.51;100.00;99856.19;5035790;28;20032;-89
2023/10/30 08:55:18;;;;;;;10.35;0.90;;;;;;;11.61;100.00;99858.28;5035569;28;20036;-89
2023/10/30 08:57:49;;;;;;;5.65;1.30;;;;;;;11.71;100.00;99857.63;5036500;28;20025;-89
2023/10/30 09:00:16;;;;;;;9.63;1.50;;;;;;;11.80;100.00;99852.59;5053795;28;20040;-89
2023/10/30 09:02:45;;;;;;;9.77;1.15;;;;;;;11.87;100.00;99848.63;5035657;28;20127;-89
2023/10/30 09:05:11;;;;;;;7.10;1.10;;;;;;;11.89;100.00;99849.19;5035847;28;20036;-89
2023/10/30 09:07:39;;;;;;;6.20;1.10;;;;;;;11.96;100.00;99864.53;5035928;28;20021;-89
2023/10/30 09:10:07;;;;;;;10.88;1.63;;;;;;;11.99;100.00;99859.44;5035161;28;20497;-89
2023/10/30 09:12:35;;;;;;;10.63;1.37;;;;;;;12.07;100.00;99863.63;5052859;28;20033;-89
2023/10/30 09:15:03;;;;;;;8.80;1.00;;;;;;;12.11;100.00;99868.31;5053009;28;20116;-89
2023/10/30 09:17:32;;;;;;;12.70;1.23;;;;;;;12.08;100.00;99857.94;5036326;28;20380;-89
2023/10/30 09:19:58;;;;;;;7.53;0.88;;;;;;;12.12;100.00;99866.44;5053427;28;20033;-89
2023/10/30 09:22:26;;;;;;;8.90;1.30;;;;;;;12.20;100.00;99848.88;5054153;28;20028;-89
2023/10/30 09:24:51;;;;;;;6.88;0.90;;;;;;;12.28;100.00;99862.03;5034850;28;20025;-89
2023/10/30 09:27:23;;;;;;;11.63;1.30;;;;;;;12.29;100.00;99847.34;5035946;28;20040;-89
2023/10/30 09:29:51;;;;;;;5.20;1.10;;;;;;;12.29;100.00;99848.16;5036205;28;20055;-89
2023/10/30 09:32:19;;;;;;;4.65;1.17;;;;;;;12.36;100.00;99847.19;5018936;28;20064;-89
2023/10/30 09:34:44;;;;;;;12.10;1.30;;;;;;;12.31;100.00;99847.09;5034946;28;20040;-89
2023/10/30 09:37:12;;;;;;;4.63;0.90;;;;;;;12.26;100.00;99848.69;5035038;28;20037;-89
2023/10/30 09:39:39;;;;;;;9.07;1.20;;;;;;;12.24;100.00;99850.84;5052805;28;20036;-89
2023/10/30 09:42:07;;;;;;;7.30;1.20;;;;;;;12.22;100.00;99854.88;5017463;28;20037;-89
2023/10/30 09:45:00;;;;;;;4.97;1.13;;;;;;;12.27;100.00;99847.59;5035444;28;20044;-89
2023/10/30 09:47:29;;;;;;;9.80;1.50;;;;;;;12.25;100.00;99843.50;5053778;28;20065;-89
2023/10/30 09:49:58;;;;;;;7.90;1.20;;;;;;;12.27;100.00;99835.91;5053353;28;20037;-89
2023/10/30 09:52:28;;;;;;;6.55;1.27;;;;;;;12.27;100.00;99844.06;5054320;28;20037;-89
2023/10/30 09:54:54;;;;;;;5.72;1.17;;;;;;;12.24;100.00;99839.16;5039059;28;20033;-89
2023/10/30 09:57:26;;;;;;;6.73;1.00;;;;;;;12.24;100.00;99823.63;5039006;28;20072;-89
2023/10/30 09:59:57;;;;;;;5.72;1.05;;;;;;;12.27;100.00;99828.56;5039048;28;20032;-89
2023/10/30 10:02:22;;;;;;;7.15;1.73;;;;;;;12.38;100.00;99823.28;5057083;28;20048;-89
2023/10/30 10:04:51;;;;;;;8.33;1.40;;;;;;;12.46;100.00;99823.66;5056315;28;20029;-89
2023/10/30 10:07:22;;;;;;;11.05;1.02;;;;;;;12.58;100.00;99814.53;5038920;28;20017;-89
2023/10/30 10:09:59;;;;;;;8.90;1.17;;;;;;;12.61;100.00;99811.31;5038286;28;20052;-91
2023/10/30 10:12:30;;;;;;;10.07;1.10;;;;;;;12.71;100.00;99816.88;5038867;28;20040;-89
2023/10/30 10:15:03;;;;;;;10.18;1.08;;;;;;;12.72;100.00;99802.16;5038182;28;20033;-89
2023/10/30 10:17:39;;;;;;;5.57;0.83;;;;;;;12.76;100.00;99810.66;5056474;28;20025;-89
2023/10/30 10:20:08;;;;;;;12.43;1.30;;;;;;;12.79;100.00;99810.16;5038895;28;20025;-89
2023/10/30 10:22:37;;;;;;;4.95;0.95;;;;;;;12.80;100.00;99811.81;5038435;28;20139;-89
2023/10/30 10:25:15;;;;;;;5.20;0.88;;;;;;;12.87;100.00;99820.56;5038452;28;20031;-89
2023/10/30 10:27:49;;;;;;;7.80;1.13;;;;;;;12.85;100.00;99813.75;5038279;28;20075;-89
2023/10/30 10:30:31;;;;;;;;;;;;;;;;;;;;;
2023/10/30 10:33:05;;;;;;;7.63;1.00;;;;;;;12.92;100.00;99812.47;5056136;28;20055;-89
2023/10/30 10:35:45;;;;;;;9.80;1.25;;;;;;;12.97;100.00;99812.50;5037908;28;20025;-89
2023/10/30 10:38:13;;;;;;;7.97;1.35;;;;;;;13.04;100.00;99816.94;5037894;28;20119;-89
2023/10/30 10:40:46;;;;;;;7.25;0.75;;;;;;;13.01;100.00;99804.66;5037905;28;20037;-91
2023/10/30 10:43:31;;;;;;;6.70;1.33;;;;;;;13.12;100.00;99820.03;5021004;28;20095;-89
2023/10/30 10:46:02;;;;;;;6.20;1.45;;;;;;;13.10;100.00;99815.91;5037527;28;20020;-89
2023/10/30 10:48:27;;;;;;;5.15;1.35;;;;;;;13.01;100.00;99804.66;5038169;28;20036;-89
2023/10/30 10:51:07;;;;;;;5.97;1.00;;;;;;;13.06;100.00;99815.59;5055331;28;20036;-89
2023/10/30 10:53:39;;;;;;;6.55;1.20;;;;;;;13.13;100.00;99801.78;5021677;28;20114;-89
2023/10/30 10:56:06;;;;;;;7.00;0.90;;;;;;;13.26;100.00;99806.00;5038239;28;20350;-90
2023/10/30 10:58:49;;;;;;;5.93;1.38;;;;;;;13.25;100.00;99807.88;5037468;28;20029;-90
2023/10/30 11:01:22;;;;;;;7.38;1.13;;;;;;;13.25;100.00;99815.25;5038585;28;20021;-89
2023/10/30 11:03:51;;;;;;;7.17;1.23;;;;;;;13.21;100.00;99806.75;5021134;28;20127;-89
2023/10/30 11:06:33;;;;;;;6.95;1.20;;;;;;;13.19;100.00;99816.28;5055039;28;20028;-89
2023/10/30 11:09:40;;;;;;;8.00;1.05;;;;;;;13.15;100.00;99799.63;5055568;28;20033;-89
2023/10/30 11:12:30;;;;;;;5.35;0.90;;;;;;;13.29;100.00;99798.13;5038840;28;20128;-90
2023/10/30 11:15:46;;;;;;;4.25;0.90;;;;;;;13.37;100.00;99804.22;5035906;28;20044;-89
2023/10/30 11:18:19;;;;;;;3.97;0.70;;;;;;;13.30;100.00;99783.44;4974757;28;20065;-89
2023/10/30 11:20:50;;;;;;;5.10;0.90;;;;;;;13.26;100.00;99774.13;5009649;28;20028;-89
2023/10/30 11:23:52;;;;;;;4.93;0.88;;;;;;;13.23;100.00;99777.38;5001626;28;20129;-89
2023/10/30 11:26:37;;;;;;;3.85;0.60;;;;;;;13.22;100.00;99774.91;5017046;28;20036;-88
2023/10/30 11:29:23;;;;;;;3.35;0.60;;;;;;;13.20;100.00;99768.88;5017738;28;20022;-88
2023/10/30 11:32:04;;;;;;;4.47;0.70;;;;;;;13.35;100.00;99766.31;5003290;28;20154;-89
2023/10/30 11:34:43;;;;;;;5.38;0.88;;;;;;;13.46;100.00;99764.50;5016949;28;20029;-89
2023/10/30 11:37:21;;;;;;;7.10;1.02;;;;;;;13.55;100.00;99756.66;5017095;28;20040;-88
2023/10/30 11:40:05;;;;;;;4.28;0.70;;;;;;;13.62;100.00;99749.88;5017747;28;20021;-90
2023/10/30 11:42:39;;;;;;;5.47;0.70;;;;;;;13.74;100.00;99751.59;5017627;28;20083;-89